sensor_id;sensor_type;location;lat;lon;timestamp;pressure;altitude;pressure_sealevel;temperature;humidity
71384;BME280;61466;52.166;5.004;2022-11-25T00:01:18;100958.03;;;10.58;73.89
71384;BME280;61466;52.166;5.004;2022-11-25T00:03:44;100933.34;;;10.40;73.35
71384;BME280;61466;52.166;5.004;2022-11-25T00:08:41;100951.03;;;10.52;73.90
71384;BME280;61466;52.166;5.004;2022-11-25T00:11:07;100917.25;;;10.30;73.95
71384;BME280;61466;52.166;5.004;2022-11-25T00:13:33;100935.78;;;10.47;74.18
71384;BME280;61466;52.166;5.004;2022-11-25T00:16:04;100927.06;;;10.19;75.38
71384;BME280;61466;52.166;5.004;2022-11-25T00:18:30;100935.13;;;10.24;75.05
71384;BME280;61466;52.166;5.004;2022-11-25T00:20:56;100930.56;;;10.25;75.48
71384;BME280;61466;52.166;5.004;2022-11-25T00:23:21;100929.78;;;10.24;75.79
71384;BME280;61466;52.166;5.004;2022-11-25T00:25:46;100933.50;;;10.23;75.96
71384;BME280;61466;52.166;5.004;2022-11-25T00:28:12;100912.34;;;10.12;75.88
71384;BME280;61466;52.166;5.004;2022-11-25T00:30:37;100929.75;;;10.19;75.94
71384;BME280;61466;52.166;5.004;2022-11-25T00:33:03;100923.03;;;10.17;76.36
71384;BME280;61466;52.166;5.004;2022-11-25T00:35:28;100927.88;;;10.20;76.23
71384;BME280;61466;52.166;5.004;2022-11-25T00:37:53;100922.25;;;10.21;76.19
71384;BME280;61466;52.166;5.004;2022-11-25T00:40:19;100915.56;;;10.19;76.65
71384;BME280;61466;52.166;5.004;2022-11-25T00:42:45;100927.09;;;10.24;76.65
71384;BME280;61466;52.166;5.004;2022-11-25T00:45:29;100921.16;;;10.17;76.49
71384;BME280;61466;52.166;5.004;2022-11-25T00:47:54;100900.84;;;10.11;76.79
71384;BME280;61466;52.166;5.004;2022-11-25T00:50:19;100916.91;;;10.16;76.88
71384;BME280;61466;52.166;5.004;2022-11-25T00:52:45;100919.59;;;10.21;76.79
71384;BME280;61466;52.166;5.004;2022-11-25T00:55:10;100920.66;;;10.20;76.93
71384;BME280;61466;52.166;5.004;2022-11-25T00:57:35;100904.03;;;10.08;77.20
71384;BME280;61466;52.166;5.004;2022-11-25T01:00:01;100901.59;;;10.07;77.13
71384;BME280;61466;52.166;5.004;2022-11-25T01:02:26;100931.38;;;10.25;76.55
71384;BME280;61466;52.166;5.004;2022-11-25T01:04:51;100931.91;;;10.22;77.46
71384;BME280;61466;52.166;5.004;2022-11-25T01:07:17;100907.78;;;10.12;77.29
71384;BME280;61466;52.166;5.004;2022-11-25T01:09:43;100931.91;;;10.22;77.19
71384;BME280;61466;52.166;5.004;2022-11-25T01:12:10;100929.50;;;10.21;77.51
71384;BME280;61466;52.166;5.004;2022-11-25T01:14:35;100938.06;;;10.23;77.58
71384;BME280;61466;52.166;5.004;2022-11-25T01:17:01;100924.44;;;10.24;77.34
71384;BME280;61466;52.166;5.004;2022-11-25T01:19:26;100940.75;;;10.28;77.40
71384;BME280;61466;52.166;5.004;2022-11-25T01:21:51;100945.56;;;10.26;77.44
71384;BME280;61466;52.166;5.004;2022-11-25T01:24:17;100958.19;;;10.36;77.43
71384;BME280;61466;52.166;5.004;2022-11-25T01:26:43;100958.44;;;10.34;77.30
71384;BME280;61466;52.166;5.004;2022-11-25T01:29:17;100965.44;;;10.35;77.71
71384;BME280;61466;52.166;5.004;2022-11-25T01:31:43;100969.44;;;10.38;77.45
71384;BME280;61466;52.166;5.004;2022-11-25T01:34:15;100946.91;;;10.29;77.55
71384;BME280;61466;52.166;5.004;2022-11-25T01:36:42;100963.56;;;10.36;77.49
71384;BME280;61466;52.166;5.004;2022-11-25T01:39:10;100974.81;;;10.43;77.34
71384;BME280;61466;52.166;5.004;2022-11-25T01:41:37;100978.56;;;10.42;77.30
71384;BME280;61466;52.166;5.004;2022-11-25T01:44:17;100980.19;;;10.48;77.29
71384;BME280;61466;52.166;5.004;2022-11-25T01:46:57;100980.44;;;10.47;77.43
71384;BME280;61466;52.166;5.004;2022-11-25T01:49:57;100983.94;;;10.47;77.50
71384;BME280;61466;52.166;5.004;2022-11-25T01:52:30;100969.75;;;10.41;77.38
71384;BME280;61466;52.166;5.004;2022-11-25T01:57:50;100975.41;;;10.50;77.41
71384;BME280;61466;52.166;5.004;2022-11-25T02:00:18;100974.31;;;10.51;77.39
71384;BME280;61466;52.166;5.004;2022-11-25T02:02:45;100967.06;;;10.41;77.28
71384;BME280;61466;52.166;5.004;2022-11-25T02:05:15;100973.22;;;10.47;77.41
71384;BME280;61466;52.166;5.004;2022-11-25T02:07:45;100971.09;;;10.49;77.28
71384;BME280;61466;52.166;5.004;2022-11-25T02:10:14;100975.66;;;10.49;77.37
71384;BME280;61466;52.166;5.004;2022-11-25T02:12:42;100959.28;;;10.40;77.49
71384;BME280;61466;52.166;5.004;2022-11-25T02:15:09;100971.63;;;10.46;77.38
71384;BME280;61466;52.166;5.004;2022-11-25T02:17:34;100974.84;;;10.48;77.35
71384;BME280;61466;52.166;5.004;2022-11-25T02:20:09;100965.22;;;10.47;77.57
71384;BME280;61466;52.166;5.004;2022-11-25T02:22:47;100963.34;;;10.48;77.60
71384;BME280;61466;52.166;5.004;2022-11-25T02:25:27;100944.34;;;10.44;77.47
71384;BME280;61466;52.166;5.004;2022-11-25T02:27:55;100954.78;;;10.45;77.98
71384;BME280;61466;52.166;5.004;2022-11-25T02:30:22;100969.75;;;10.47;77.38
71384;BME280;61466;52.166;5.004;2022-11-25T02:32:48;100957.66;;;10.34;77.62
71384;BME280;61466;52.166;5.004;2022-11-25T02:35:23;100960.34;;;10.34;77.59
71384;BME280;61466;52.166;5.004;2022-11-25T02:37:49;100958.75;;;10.38;77.55
71384;BME280;61466;52.166;5.004;2022-11-25T02:40:15;100957.16;;;10.42;77.60
71384;BME280;61466;52.166;5.004;2022-11-25T02:42:42;100958.25;;;10.46;77.52
71384;BME280;61466;52.166;5.004;2022-11-25T02:45:10;100955.00;;;10.39;77.60
71384;BME280;61466;52.166;5.004;2022-11-25T02:47:37;100951.28;;;10.40;77.74
71384;BME280;61466;52.166;5.004;2022-11-25T02:50:02;100950.72;;;10.38;77.89
71384;BME280;61466;52.166;5.004;2022-11-25T02:52:27;100962.50;;;10.37;77.82
71384;BME280;61466;52.166;5.004;2022-11-25T02:54:53;100963.56;;;10.41;77.71
71384;BME280;61466;52.166;5.004;2022-11-25T02:57:18;100973.22;;;10.42;77.84
71384;BME280;61466;52.166;5.004;2022-11-25T02:59:43;100971.56;;;10.36;77.91
71384;BME280;61466;52.166;5.004;2022-11-25T03:02:09;100983.91;;;10.42;77.72
71384;BME280;61466;52.166;5.004;2022-11-25T03:04:34;100987.63;;;10.41;77.73
71384;BME280;61466;52.166;5.004;2022-11-25T03:06:59;100977.69;;;10.31;77.72
71384;BME280;61466;52.166;5.004;2022-11-25T03:09:25;100979.06;;;10.34;77.69
71384;BME280;61466;52.166;5.004;2022-11-25T03:11:50;100975.31;;;10.35;77.73
71384;BME280;61466;52.166;5.004;2022-11-25T03:14:34;100986.59;;;10.42;77.63
71384;BME280;61466;52.166;5.004;2022-11-25T03:16:59;100975.56;;;10.33;78.09
71384;BME280;61466;52.166;5.004;2022-11-25T03:19:25;100983.91;;;10.37;77.65
71384;BME280;61466;52.166;5.004;2022-11-25T03:21:50;100998.31;;;10.41;77.73
71384;BME280;61466;52.166;5.004;2022-11-25T03:24:15;100980.41;;;10.36;77.71
71384;BME280;61466;52.166;5.004;2022-11-25T03:26:41;100982.28;;;10.36;78.05
71384;BME280;61466;52.166;5.004;2022-11-25T03:29:06;100983.34;;;10.35;77.81
71384;BME280;61466;52.166;5.004;2022-11-25T03:31:32;100980.94;;;10.33;77.97
71384;BME280;61466;52.166;5.004;2022-11-25T03:33:58;101000.47;;;10.39;77.82
71384;BME280;61466;52.166;5.004;2022-11-25T03:36:23;100996.75;;;10.40;77.87
71384;BME280;61466;52.166;5.004;2022-11-25T03:38:48;100988.97;;;10.38;77.92
71384;BME280;61466;52.166;5.004;2022-11-25T03:41:13;100991.91;;;10.37;77.72
71384;BME280;61466;52.166;5.004;2022-11-25T03:43:39;101001.53;;;10.38;77.70
71384;BME280;61466;52.166;5.004;2022-11-25T03:46:04;101016.00;;;10.42;77.66
71384;BME280;61466;52.166;5.004;2022-11-25T03:48:29;101020.56;;;10.41;77.62
71384;BME280;61466;52.166;5.004;2022-11-25T03:50:55;101013.31;;;10.37;77.66
71384;BME280;61466;52.166;5.004;2022-11-25T03:53:20;101014.38;;;10.41;77.89
71384;BME280;61466;52.166;5.004;2022-11-25T03:55:48;101011.94;;;10.34;77.70
71384;BME280;61466;52.166;5.004;2022-11-25T03:58:14;101009.47;;;10.28;77.51
71384;BME280;61466;52.166;5.004;2022-11-25T04:00:39;101028.28;;;10.38;77.63
71384;BME280;61466;52.166;5.004;2022-11-25T04:03:04;101021.28;;;10.32;77.84
71384;BME280;61466;52.166;5.004;2022-11-25T04:05:29;101026.41;;;10.38;77.93
71384;BME280;61466;52.166;5.004;2022-11-25T04:07:55;101016.44;;;10.29;77.74
71384;BME280;61466;52.166;5.004;2022-11-25T04:10:20;101023.97;;;10.32;77.82
71384;BME280;61466;52.166;5.004;2022-11-25T04:12:45;101015.59;;;10.28;77.81
71384;BME280;61466;52.166;5.004;2022-11-25T04:15:11;101030.16;;;10.37;77.59
71384;BME280;61466;52.166;5.004;2022-11-25T04:17:37;101040.31;;;10.35;77.58
71384;BME280;61466;52.166;5.004;2022-11-25T04:20:03;101036.28;;;10.38;77.43
71384;BME280;61466;52.166;5.004;2022-11-25T04:22:28;101033.81;;;10.26;77.25
71384;BME280;61466;52.166;5.004;2022-11-25T04:24:54;101043.22;;;10.34;77.13
71384;BME280;61466;52.166;5.004;2022-11-25T04:27:19;101046.63;;;10.24;77.18
71384;BME280;61466;52.166;5.004;2022-11-25T04:29:44;101055.72;;;10.28;77.01
71384;BME280;61466;52.166;5.004;2022-11-25T04:32:10;101044.19;;;10.22;76.88
71384;BME280;61466;52.166;5.004;2022-11-25T04:34:35;101037.13;;;10.06;77.14
71384;BME280;61466;52.166;5.004;2022-11-25T04:37:00;101066.56;;;10.11;76.94
71384;BME280;61466;52.166;5.004;2022-11-25T04:39:26;101056.84;;;10.00;77.05
71384;BME280;61466;52.166;5.004;2022-11-25T04:41:51;101061.03;;;9.91;76.91
71384;BME280;61466;52.166;5.004;2022-11-25T04:44:36;101072.81;;;9.90;76.98
71384;BME280;61466;52.166;5.004;2022-11-25T04:47:01;101074.63;;;9.84;76.97
71384;BME280;61466;52.166;5.004;2022-11-25T04:49:27;101084.50;;;9.83;76.82
71384;BME280;61466;52.166;5.004;2022-11-25T04:51:52;101083.88;;;9.76;76.95
71384;BME280;61466;52.166;5.004;2022-11-25T04:54:17;101082.53;;;9.74;76.78
71384;BME280;61466;52.166;5.004;2022-11-25T04:56:43;101090.50;;;9.69;76.87
71384;BME280;61466;52.166;5.004;2022-11-25T04:59:08;101093.41;;;9.67;76.78
71384;BME280;61466;52.166;5.004;2022-11-25T05:01:52;101105.66;;;9.63;77.14
71384;BME280;61466;52.166;5.004;2022-11-25T05:04:17;101094.88;;;9.53;76.92
71384;BME280;61466;52.166;5.004;2022-11-25T05:06:42;101105.31;;;9.54;76.92
71384;BME280;61466;52.166;5.004;2022-11-25T05:09:08;101116.75;;;9.50;76.95
71384;BME280;61466;52.166;5.004;2022-11-25T05:11:35;101102.22;;;9.40;76.82
71384;BME280;61466;52.166;5.004;2022-11-25T05:14:00;101097.56;;;9.31;76.76
71384;BME280;61466;52.166;5.004;2022-11-25T05:16:26;101109.69;;;9.38;77.01
71384;BME280;61466;52.166;5.004;2022-11-25T05:18:51;101121.16;;;9.39;76.84
71384;BME280;61466;52.166;5.004;2022-11-25T05:21:16;101119.25;;;9.34;76.99
71384;BME280;61466;52.166;5.004;2022-11-25T05:23:41;101128.00;;;9.30;76.79
71384;BME280;61466;52.166;5.004;2022-11-25T05:26:07;101133.41;;;9.35;76.93
71384;BME280;61466;52.166;5.004;2022-11-25T05:28:32;101129.03;;;9.29;76.87
71384;BME280;61466;52.166;5.004;2022-11-25T05:30:58;101114.53;;;9.19;77.04
71384;BME280;61466;52.166;5.004;2022-11-25T05:33:24;101133.59;;;9.28;77.13
71384;BME280;61466;52.166;5.004;2022-11-25T05:35:57;101132.78;;;9.28;77.11
71384;BME280;61466;52.166;5.004;2022-11-25T05:38:24;101141.25;;;9.25;77.08
71384;BME280;61466;52.166;5.004;2022-11-25T05:40:49;101128.75;;;9.25;77.26
71384;BME280;61466;52.166;5.004;2022-11-25T05:43:15;101125.19;;;9.19;77.10
71384;BME280;61466;52.166;5.004;2022-11-25T05:45:41;101139.66;;;9.23;77.26
71384;BME280;61466;52.166;5.004;2022-11-25T05:48:06;101135.31;;;9.17;77.45
71384;BME280;61466;52.166;5.004;2022-11-25T05:50:31;101129.19;;;9.17;77.26
71384;BME280;61466;52.166;5.004;2022-11-25T05:52:57;101127.53;;;9.16;77.12
71384;BME280;61466;52.166;5.004;2022-11-25T05:55:22;101141.06;;;9.09;77.22
71384;BME280;61466;52.166;5.004;2022-11-25T05:57:47;101150.53;;;9.17;77.36
71384;BME280;61466;52.166;5.004;2022-11-25T06:00:13;101141.41;;;9.13;77.34
71384;BME280;61466;52.166;5.004;2022-11-25T06:02:38;101147.78;;;9.12;77.53
71384;BME280;61466;52.166;5.004;2022-11-25T06:05:04;101142.38;;;9.07;77.62
71384;BME280;61466;52.166;5.004;2022-11-25T06:07:29;101153.13;;;9.12;77.54
71384;BME280;61466;52.166;5.004;2022-11-25T06:09:55;101169.78;;;9.19;77.60
71384;BME280;61466;52.166;5.004;2022-11-25T06:12:21;101164.69;;;9.17;77.24
71384;BME280;61466;52.166;5.004;2022-11-25T06:14:46;101160.41;;;9.16;77.59
71384;BME280;61466;52.166;5.004;2022-11-25T06:17:11;101167.84;;;9.14;77.43
71384;BME280;61466;52.166;5.004;2022-11-25T06:19:37;101175.34;;;9.17;77.51
71384;BME280;61466;52.166;5.004;2022-11-25T06:22:02;101176.91;;;9.13;77.17
71384;BME280;61466;52.166;5.004;2022-11-25T06:24:28;101149.38;;;8.91;77.38
71384;BME280;61466;52.166;5.004;2022-11-25T06:26:54;101184.44;;;9.16;77.29
71384;BME280;61466;52.166;5.004;2022-11-25T06:29:20;101187.91;;;9.17;77.78
71384;BME280;61466;52.166;5.004;2022-11-25T06:31:48;101190.00;;;9.15;77.31
71384;BME280;61466;52.166;5.004;2022-11-25T06:34:13;101180.25;;;9.04;77.19
71384;BME280;61466;52.166;5.004;2022-11-25T06:36:38;101185.09;;;9.07;77.12
71384;BME280;61466;52.166;5.004;2022-11-25T06:39:04;101182.34;;;9.01;77.13
71384;BME280;61466;52.166;5.004;2022-11-25T06:41:29;101175.78;;;8.92;77.10
71384;BME280;61466;52.166;5.004;2022-11-25T06:43:54;101199.16;;;9.02;77.11
71384;BME280;61466;52.166;5.004;2022-11-25T06:46:20;101199.63;;;8.99;77.16
71384;BME280;61466;52.166;5.004;2022-11-25T06:48:45;101203.69;;;9.01;77.11
71384;BME280;61466;52.166;5.004;2022-11-25T06:51:12;101205.25;;;8.97;77.09
71384;BME280;61466;52.166;5.004;2022-11-25T06:53:39;101205.97;;;8.93;77.16
71384;BME280;61466;52.166;5.004;2022-11-25T06:56:10;101202.47;;;8.92;77.03
71384;BME280;61466;52.166;5.004;2022-11-25T06:58:37;101213.97;;;8.93;77.21
71384;BME280;61466;52.166;5.004;2022-11-25T07:01:06;101202.66;;;8.86;77.09
71384;BME280;61466;52.166;5.004;2022-11-25T07:03:33;101218.09;;;8.84;77.16
71384;BME280;61466;52.166;5.004;2022-11-25T07:05:58;101216.25;;;8.84;76.97
71384;BME280;61466;52.166;5.004;2022-11-25T07:08:25;101219.44;;;8.86;77.05
71384;BME280;61466;52.166;5.004;2022-11-25T07:10:50;101232.25;;;8.84;77.21
71384;BME280;61466;52.166;5.004;2022-11-25T07:13:16;101234.34;;;8.82;77.05
71384;BME280;61466;52.166;5.004;2022-11-25T07:15:41;101237.72;;;8.77;77.02
71384;BME280;61466;52.166;5.004;2022-11-25T07:18:06;101234.19;;;8.72;76.60
71384;BME280;61466;52.166;5.004;2022-11-25T07:20:32;101234.19;;;8.72;76.96
71384;BME280;61466;52.166;5.004;2022-11-25T07:22:57;101239.41;;;8.67;77.07
71384;BME280;61466;52.166;5.004;2022-11-25T07:25:22;101265.47;;;8.76;77.01
71384;BME280;61466;52.166;5.004;2022-11-25T07:27:48;101244.75;;;8.67;77.27
71384;BME280;61466;52.166;5.004;2022-11-25T07:30:13;101253.88;;;8.71;77.11
71384;BME280;61466;52.166;5.004;2022-11-25T07:32:39;101261.91;;;8.71;77.24
71384;BME280;61466;52.166;5.004;2022-11-25T07:35:04;101266.66;;;8.69;77.39
71384;BME280;61466;52.166;5.004;2022-11-25T07:37:30;101263.69;;;8.65;77.45
71384;BME280;61466;52.166;5.004;2022-11-25T07:39:55;101242.31;;;8.48;77.54
71384;BME280;61466;52.166;5.004;2022-11-25T07:42:21;101282.66;;;8.69;77.41
71384;BME280;61466;52.166;5.004;2022-11-25T07:44:47;101285.25;;;8.64;77.31
71384;BME280;61466;52.166;5.004;2022-11-25T07:47:13;101279.13;;;8.63;77.63
71384;BME280;61466;52.166;5.004;2022-11-25T07:49:39;101294.16;;;8.69;77.54
71384;BME280;61466;52.166;5.004;2022-11-25T07:52:05;101296.25;;;8.67;77.65
71384;BME280;61466;52.166;5.004;2022-11-25T07:54:30;101297.53;;;8.65;77.47
71384;BME280;61466;52.166;5.004;2022-11-25T07:56:57;101300.63;;;8.73;77.53
71384;BME280;61466;52.166;5.004;2022-11-25T07:59:23;101304.34;;;8.72;77.45
71384;BME280;61466;52.166;5.004;2022-11-25T08:01:50;101309.66;;;8.72;77.52
71384;BME280;61466;52.166;5.004;2022-11-25T08:04:16;101315.81;;;8.73;77.69
71384;BME280;61466;52.166;5.004;2022-11-25T08:06:43;101318.47;;;8.73;77.63
71384;BME280;61466;52.166;5.004;2022-11-25T08:09:13;101307.00;;;8.72;77.63
71384;BME280;61466;52.166;5.004;2022-11-25T08:11:40;101321.81;;;8.80;77.52
71384;BME280;61466;52.166;5.004;2022-11-25T08:14:07;101314.19;;;8.72;77.67
71384;BME280;61466;52.166;5.004;2022-11-25T08:16:33;101328.75;;;8.81;77.46
71384;BME280;61466;52.166;5.004;2022-11-25T08:19:01;101320.91;;;8.74;77.60
71384;BME280;61466;52.166;5.004;2022-11-25T08:21:27;101336.03;;;8.86;77.77
71384;BME280;61466;52.166;5.004;2022-11-25T08:23:54;101345.41;;;8.88;77.57
71384;BME280;61466;52.166;5.004;2022-11-25T08:26:25;101353.75;;;8.92;77.52
71384;BME280;61466;52.166;5.004;2022-11-25T08:28:52;101358.38;;;8.96;77.71
71384;BME280;61466;52.166;5.004;2022-11-25T08:31:21;101347.84;;;8.90;77.59
71384;BME280;61466;52.166;5.004;2022-11-25T08:33:48;101361.38;;;9.00;77.48
71384;BME280;61466;52.166;5.004;2022-11-25T08:36:18;101357.91;;;8.99;77.46
71384;BME280;61466;52.166;5.004;2022-11-25T08:38:45;101361.44;;;9.05;77.38
71384;BME280;61466;52.166;5.004;2022-11-25T08:41:32;101370.81;;;9.08;77.62
71384;BME280;61466;52.166;5.004;2022-11-25T08:43:59;101358.78;;;9.05;77.50
71384;BME280;61466;52.166;5.004;2022-11-25T08:46:29;101348.38;;;9.04;77.35
71384;BME280;61466;52.166;5.004;2022-11-25T08:48:55;101360.81;;;9.15;77.32
71384;BME280;61466;52.166;5.004;2022-11-25T08:51:24;101360.31;;;9.18;77.36
71384;BME280;61466;52.166;5.004;2022-11-25T08:53:50;101370.03;;;9.24;77.13
71384;BME280;61466;52.166;5.004;2022-11-25T08:56:19;101377.31;;;9.29;77.18
71384;BME280;61466;52.166;5.004;2022-11-25T08:58:45;101358.22;;;9.20;77.14
71384;BME280;61466;52.166;5.004;2022-11-25T09:01:13;101367.47;;;9.29;77.03
71384;BME280;61466;52.166;5.004;2022-11-25T09:03:41;101374.75;;;9.34;76.98
71384;BME280;61466;52.166;5.004;2022-11-25T09:06:08;101377.16;;;9.35;76.96
71384;BME280;61466;52.166;5.004;2022-11-25T09:08:35;101392.22;;;9.41;76.56
71384;BME280;61466;52.166;5.004;2022-11-25T09:11:00;101400.06;;;9.48;76.87
71384;BME280;61466;52.166;5.004;2022-11-25T09:13:26;101405.66;;;9.47;76.67
71384;BME280;61466;52.166;5.004;2022-11-25T09:15:53;101394.66;;;9.43;76.78
71384;BME280;61466;52.166;5.004;2022-11-25T09:18:19;101409.53;;;9.56;76.52
71384;BME280;61466;52.166;5.004;2022-11-25T09:20:45;101398.44;;;9.47;76.53
71384;BME280;61466;52.166;5.004;2022-11-25T09:23:11;101421.66;;;9.63;76.46
71384;BME280;61466;52.166;5.004;2022-11-25T09:25:37;101399.09;;;9.54;76.40
71384;BME280;61466;52.166;5.004;2022-11-25T09:28:03;101415.50;;;9.63;76.27
71384;BME280;61466;52.166;5.004;2022-11-25T09:30:29;101431.94;;;9.72;76.38
71384;BME280;61466;52.166;5.004;2022-11-25T09:32:55;101432.78;;;9.72;76.41
71384;BME280;61466;52.166;5.004;2022-11-25T09:35:24;101427.44;;;9.72;76.37
71384;BME280;61466;52.166;5.004;2022-11-25T09:37:49;101435.84;;;9.81;76.45
71384;BME280;61466;52.166;5.004;2022-11-25T09:40:33;101440.69;;;9.84;76.26
71384;BME280;61466;52.166;5.004;2022-11-25T09:52:15;101458.75;;;9.94;75.68
71384;BME280;61466;52.166;5.004;2022-11-25T09:54:52;101458.06;;;10.03;75.89
71384;BME280;61466;52.166;5.004;2022-11-25T10:00:18;101470.69;;;10.08;75.62
71384;BME280;61466;52.166;5.004;2022-11-25T10:03:01;101463.19;;;10.05;75.71
71384;BME280;61466;52.166;5.004;2022-11-25T10:05:32;101474.25;;;10.14;75.54
71384;BME280;61466;52.166;5.004;2022-11-25T10:08:02;101490.91;;;10.21;75.57
71384;BME280;61466;52.166;5.004;2022-11-25T10:10:41;101496.59;;;10.24;75.52
71384;BME280;61466;52.166;5.004;2022-11-25T10:13:16;101492.47;;;10.34;75.33
71384;BME280;61466;52.166;5.004;2022-11-25T10:15:45;101487.34;;;10.32;75.46
71384;BME280;61466;52.166;5.004;2022-11-25T10:18:28;101477.97;;;10.30;75.22
71384;BME280;61466;52.166;5.004;2022-11-25T10:20:56;101496.59;;;10.41;75.29
71384;BME280;61466;52.166;5.004;2022-11-25T10:23:23;101492.09;;;10.47;75.09
71384;BME280;61466;52.166;5.004;2022-11-25T10:25:54;101500.69;;;10.49;75.20
71384;BME280;61466;52.166;5.004;2022-11-25T10:28:24;101491.63;;;10.50;75.34
71384;BME280;61466;52.166;5.004;2022-11-25T10:33:39;101504.06;;;10.61;74.76
71384;BME280;61466;52.166;5.004;2022-11-25T10:36:28;101519.13;;;10.68;75.14
71384;BME280;61466;52.166;5.004;2022-11-25T10:39:02;101493.13;;;10.63;74.73
71384;BME280;61466;52.166;5.004;2022-11-25T10:41:42;101519.75;;;10.75;74.55
71384;BME280;61466;52.166;5.004;2022-11-25T10:44:28;101526.22;;;10.79;74.05
71384;BME280;61466;52.166;5.004;2022-11-25T10:49:57;101530.41;;;10.92;74.33
71384;BME280;61466;52.166;5.004;2022-11-25T10:52:28;101529.84;;;10.90;74.34
71384;BME280;61466;52.166;5.004;2022-11-25T10:57:32;101534.94;;;10.91;74.05
71384;BME280;61466;52.166;5.004;2022-11-25T10:59:59;101543.78;;;10.92;74.46
71384;BME280;61466;52.166;5.004;2022-11-25T11:02:36;101545.66;;;10.91;74.44
71384;BME280;61466;52.166;5.004;2022-11-25T11:07:31;101568.56;;;11.04;74.26
71384;BME280;61466;52.166;5.004;2022-11-25T11:10:23;101567.25;;;11.06;74.30
71384;BME280;61466;52.166;5.004;2022-11-25T11:12:59;101572.09;;;11.10;74.21
71384;BME280;61466;52.166;5.004;2022-11-25T11:20:51;101582.31;;;11.13;74.27
71384;BME280;61466;52.166;5.004;2022-11-25T11:23:17;101589.59;;;11.17;74.24
71384;BME280;61466;52.166;5.004;2022-11-25T11:25:54;101587.03;;;11.05;74.75
71384;BME280;61466;52.166;5.004;2022-11-25T11:28:43;101598.88;;;11.10;74.75
71384;BME280;61466;52.166;5.004;2022-11-25T11:31:21;101610.22;;;11.17;75.11
71384;BME280;61466;52.166;5.004;2022-11-25T11:34:02;101599.81;;;11.20;75.12
71384;BME280;61466;52.166;5.004;2022-11-25T11:36:46;101603.91;;;11.28;74.78
71384;BME280;61466;52.166;5.004;2022-11-25T11:39:27;101602.59;;;11.31;74.86
71384;BME280;61466;52.166;5.004;2022-11-25T11:45:16;101616.09;;;11.63;74.82
71384;BME280;61466;52.166;5.004;2022-11-25T11:50:31;101616.72;;;11.97;74.77
71384;BME280;61466;52.166;5.004;2022-11-25T11:56:13;101620.53;;;12.39;74.54
71384;BME280;61466;52.166;5.004;2022-11-25T12:04:37;101618.63;;;12.72;73.78
71384;BME280;61466;52.166;5.004;2022-11-25T12:07:23;101619.41;;;12.67;73.57
71384;BME280;61466;52.166;5.004;2022-11-25T12:12:37;101610.72;;;12.55;72.69
71384;BME280;61466;52.166;5.004;2022-11-25T12:15:46;101628.75;;;12.64;72.94
71384;BME280;61466;52.166;5.004;2022-11-25T12:21:00;101642.69;;;12.61;73.12
71384;BME280;61466;52.166;5.004;2022-11-25T12:26:57;101641.78;;;12.45;72.77
71384;BME280;61466;52.166;5.004;2022-11-25T12:46:18;101673.00;;;12.24;72.79
71384;BME280;61466;52.166;5.004;2022-11-25T12:48:46;101665.19;;;12.18;72.79
71384;BME280;61466;52.166;5.004;2022-11-25T13:10:51;101707.38;;;12.00;73.10
71384;BME280;61466;52.166;5.004;2022-11-25T13:13:51;101709.00;;;12.01;73.17
71384;BME280;61466;52.166;5.004;2022-11-25T13:16:22;101709.75;;;11.97;73.31
71384;BME280;61466;52.166;5.004;2022-11-25T13:18:48;101719.28;;;12.09;73.29
71384;BME280;61466;52.166;5.004;2022-11-25T13:21:15;101705.00;;;12.04;73.24
71384;BME280;61466;52.166;5.004;2022-11-25T13:23:52;101710.22;;;12.16;73.16
71384;BME280;61466;52.166;5.004;2022-11-25T13:28:57;101700.84;;;12.18;73.14
71384;BME280;61466;52.166;5.004;2022-11-25T13:31:31;101724.59;;;12.37;73.04
71384;BME280;61466;52.166;5.004;2022-11-25T13:36:24;101741.81;;;12.41;72.88
71384;BME280;61466;52.166;5.004;2022-11-25T13:46:52;101743.22;;;12.43;72.38
71384;BME280;61466;52.166;5.004;2022-11-25T13:49:52;101734.31;;;12.43;72.72
71384;BME280;61466;52.166;5.004;2022-11-25T13:52:41;101746.47;;;12.50;72.62
71384;BME280;61466;52.166;5.004;2022-11-25T13:55:30;101752.44;;;12.58;72.33
71384;BME280;61466;52.166;5.004;2022-11-25T14:08:36;101785.94;;;12.82;72.26
71384;BME280;61466;52.166;5.004;2022-11-25T14:11:42;101776.59;;;12.90;72.09
71384;BME280;61466;52.166;5.004;2022-11-25T14:24:51;101797.91;;;13.34;71.87
71384;BME280;61466;52.166;5.004;2022-11-25T14:27:32;101805.97;;;13.39;71.62
71384;BME280;61466;52.166;5.004;2022-11-25T14:30:05;101809.75;;;13.43;71.49
71384;BME280;61466;52.166;5.004;2022-11-25T14:35:40;101810.53;;;13.34;70.59
71384;BME280;61466;52.166;5.004;2022-11-25T14:38:14;101826.13;;;13.37;70.68
71384;BME280;61466;52.166;5.004;2022-11-25T14:40:56;101840.84;;;13.29;70.23
71384;BME280;61466;52.166;5.004;2022-11-25T14:43:24;101832.16;;;13.22;71.25
71384;BME280;61466;52.166;5.004;2022-11-25T14:46:20;101842.59;;;13.18;71.04
71384;BME280;61466;52.166;5.004;2022-11-25T14:49:00;101827.25;;;13.08;71.07
71384;BME280;61466;52.166;5.004;2022-11-25T14:51:33;101831.75;;;13.03;71.39
71384;BME280;61466;52.166;5.004;2022-11-25T14:53:59;101841.69;;;13.02;71.26
71384;BME280;61466;52.166;5.004;2022-11-25T14:56:27;101844.34;;;12.97;71.12
71384;BME280;61466;52.166;5.004;2022-11-25T14:58:54;101846.16;;;12.91;71.24
71384;BME280;61466;52.166;5.004;2022-11-25T15:01:32;101866.78;;;12.86;71.16
71384;BME280;61466;52.166;5.004;2022-11-25T15:04:15;101869.94;;;12.78;71.40
71384;BME280;61466;52.166;5.004;2022-11-25T15:06:42;101865.59;;;12.72;71.16
71384;BME280;61466;52.166;5.004;2022-11-25T15:09:26;101873.53;;;12.61;71.24
71384;BME280;61466;52.166;5.004;2022-11-25T15:12:00;101876.09;;;12.51;71.49
71384;BME280;61466;52.166;5.004;2022-11-25T15:14:38;101879.75;;;12.40;71.29
71384;BME280;61466;52.166;5.004;2022-11-25T15:17:07;101888.47;;;12.30;71.69